createdAt,value
2022-10-17T00:00:11.967Z,78.85
2022-10-17T00:03:53.381Z,78.39
2022-10-17T00:07:31.300Z,78.54
2022-10-17T00:11:21.507Z,78.59
2022-10-17T00:14:46.330Z,78.80
2022-10-17T00:18:43.199Z,79.33
2022-10-17T00:22:03.858Z,79.63
2022-10-17T00:25:42.102Z,79.76
2022-10-17T00:29:19.210Z,79.77
2022-10-17T00:32:57.027Z,79.41
2022-10-17T00:36:53.386Z,79.13
2022-10-17T00:40:14.072Z,79.09
2022-10-17T00:43:52.680Z,79.09
2022-10-17T00:47:30.765Z,79.24
2022-10-17T00:51:07.175Z,79.46
2022-10-17T00:54:49.472Z,79.42
2022-10-17T00:58:22.248Z,79.36
2022-10-17T01:02:20.937Z,79.25
2022-10-17T01:05:42.398Z,79.22
2022-10-17T01:09:19.387Z,79.46
2022-10-17T01:13:11.213Z,79.78
2022-10-17T01:17:07.084Z,80.21
2022-10-17T01:20:40.623Z,80.49
2022-10-17T01:24:49.026Z,80.37
2022-10-17T01:28:16.699Z,80.28
2022-10-17T01:32:07.166Z,80.28
2022-10-17T01:36:27.178Z,80.47
2022-10-17T01:40:04.289Z,80.98
2022-10-17T01:43:40.094Z,81.15
2022-10-17T01:47:09.043Z,81.02
2022-10-17T01:51:09.622Z,80.77
2022-10-17T01:54:51.460Z,80.70
2022-10-17T01:58:37.903Z,80.83
2022-10-17T02:02:01.390Z,81.05
2022-10-17T02:05:55.843Z,81.23
2022-10-17T02:09:35.759Z,81.10
2022-10-17T02:13:23.475Z,80.98
2022-10-17T02:17:35.052Z,80.80
2022-10-17T02:21:08.664Z,81.00
2022-10-17T02:24:52.749Z,81.53
2022-10-17T02:28:51.096Z,82.07
2022-10-17T02:35:54.018Z,82.67
2022-10-17T02:39:29.406Z,82.94
2022-10-17T02:43:05.459Z,82.95
2022-10-17T02:46:48.825Z,82.84
2022-10-17T02:54:18.060Z,83.39
2022-10-17T02:58:23.178Z,83.75
2022-10-17T03:01:44.661Z,83.78
2022-10-17T03:05:24.283Z,83.83
2022-10-17T03:08:59.198Z,83.70
2022-10-17T03:12:36.815Z,83.73
2022-10-17T03:16:14.489Z,83.91
2022-10-17T03:19:52.358Z,84.21
2022-10-17T03:23:48.741Z,84.44
2022-10-17T03:27:10.603Z,84.55
2022-10-17T03:30:48.291Z,84.51
2022-10-17T03:34:25.436Z,84.31
2022-10-17T03:38:22.123Z,83.94
2022-10-17T03:41:42.620Z,84.08
2022-10-17T03:45:20.163Z,84.29
2022-10-17T03:48:57.818Z,84.18
2022-10-17T03:52:38.584Z,84.24
2022-10-17T03:56:19.479Z,84.09
2022-10-17T03:59:52.479Z,84.17
2022-10-17T04:03:52.487Z,84.53
2022-10-17T04:07:13.565Z,84.69
2022-10-17T04:10:50.898Z,84.90
2022-10-17T04:14:28.747Z,84.66
2022-10-17T04:18:06.358Z,84.55
2022-10-17T04:21:44.073Z,84.54
2022-10-17T04:25:40.586Z,84.86
2022-10-17T04:29:01.309Z,85.14
2022-10-17T04:32:39.437Z,85.28
2022-10-17T04:36:19.869Z,85.54
2022-10-17T04:39:54.336Z,85.61
2022-10-17T04:43:51.421Z,85.54
2022-10-17T04:47:13.320Z,85.47
2022-10-17T04:51:16.351Z,85.50
2022-10-17T04:54:54.592Z,85.51
2022-10-17T04:58:32.380Z,85.77
2022-10-17T05:02:10.068Z,85.83
2022-10-17T05:05:48.437Z,85.79
2022-10-17T05:09:25.429Z,85.82
2022-10-17T05:13:03.486Z,85.81
2022-10-17T05:16:40.694Z,85.91
2022-10-17T05:20:18.423Z,86.20
2022-10-17T05:23:56.248Z,86.35
2022-10-17T05:27:33.787Z,86.08
2022-10-17T05:31:31.160Z,85.85
2022-10-17T05:34:51.979Z,85.69
2022-10-17T05:38:29.575Z,85.75
2022-10-17T05:42:07.786Z,86.10
2022-10-17T05:45:44.967Z,86.18
2022-10-17T05:49:33.262Z,86.23
2022-10-17T05:53:23.851Z,85.92
2022-10-17T05:56:45.191Z,85.92
2022-10-17T06:00:22.881Z,85.93
2022-10-17T06:04:00.567Z,86.07
2022-10-17T06:07:38.258Z,86.27
2022-10-17T06:11:16.015Z,86.16
2022-10-17T06:14:53.493Z,85.90
2022-10-17T06:18:31.361Z,85.69
2022-10-17T06:22:28.030Z,85.94
2022-10-17T06:25:51.036Z,86.22
2022-10-17T06:29:47.271Z,86.36
2022-10-17T06:33:26.928Z,86.21
2022-10-17T06:36:48.855Z,85.88
2022-10-17T06:40:26.444Z,85.88
2022-10-17T06:44:24.709Z,85.84
2022-10-17T06:48:04.003Z,86.01
2022-10-17T06:51:41.468Z,86.31
2022-10-17T06:55:22.640Z,86.32
2022-10-17T06:59:03.609Z,86.36
2022-10-17T07:02:43.925Z,86.34
2022-10-17T07:06:19.369Z,86.05
2022-10-17T07:09:56.727Z,85.88
2022-10-17T07:13:38.846Z,86.11
2022-10-17T07:17:13.455Z,86.32
2022-10-17T07:20:54.646Z,86.44
2022-10-17T07:24:46.363Z,86.63
2022-10-17T07:36:28.234Z,86.32
2022-10-17T07:40:07.710Z,86.63
2022-10-17T07:44:01.626Z,86.87
2022-10-17T07:47:27.484Z,86.68
2022-10-17T07:51:07.696Z,86.09
2022-10-17T07:55:01.331Z,85.47
2022-10-17T07:58:40.333Z,84.35
2022-10-17T08:02:01.298Z,83.85
2022-10-17T08:05:38.433Z,83.47
2022-10-17T08:09:16.235Z,82.68
2022-10-17T08:12:54.752Z,82.01
2022-10-17T08:16:50.262Z,81.38
2022-10-17T08:20:12.108Z,81.23
2022-10-17T08:23:48.472Z,80.91
2022-10-17T08:27:27.957Z,80.58
2022-10-17T08:31:12.117Z,79.52
2022-10-17T08:34:41.562Z,78.44
2022-10-17T08:38:21.036Z,78.10
2022-10-17T08:42:08.120Z,77.03
2022-10-17T08:46:04.397Z,75.36
2022-10-17T08:49:52.658Z,74.46
2022-10-17T08:53:26.407Z,73.62
2022-10-17T08:57:15.486Z,72.59
2022-10-17T09:00:36.474Z,71.56
2022-10-17T09:04:45.611Z,72.11
2022-10-17T09:08:34.652Z,71.52
2022-10-17T09:12:20.455Z,70.76
2022-10-17T09:16:01.393Z,70.00
2022-10-17T09:20:04.440Z,69.90
2022-10-17T09:23:29.975Z,69.06
2022-10-17T09:27:03.815Z,68.68
2022-10-17T09:30:45.542Z,68.76
2022-10-17T09:34:18.085Z,68.03
2022-10-17T09:37:55.848Z,67.20
2022-10-17T09:41:45.836Z,66.64
2022-10-17T09:45:11.037Z,66.43
2022-10-17T09:52:48.666Z,66.19
2022-10-17T09:56:16.330Z,65.77
2022-10-17T09:59:56.596Z,65.45
2022-10-17T10:03:27.327Z,65.37
2022-10-17T10:07:07.104Z,65.27
2022-10-17T10:10:43.768Z,64.43
2022-10-17T10:14:39.668Z,63.93
2022-10-17T10:18:00.941Z,62.93
2022-10-17T10:21:59.794Z,62.48
2022-10-17T10:25:21.224Z,62.09
2022-10-17T10:29:05.390Z,61.86
2022-10-17T10:32:37.849Z,61.80
2022-10-17T10:36:53.399Z,61.58
2022-10-17T10:40:38.669Z,60.98
2022-10-17T10:43:59.154Z,60.62
2022-10-17T10:48:38.145Z,60.29
2022-10-17T10:52:03.226Z,60.21
2022-10-17T10:56:20.631Z,59.29
2022-10-17T11:00:24.483Z,58.20
2022-10-17T11:04:08.020Z,58.25
2022-10-17T11:07:36.187Z,57.56
2022-10-17T11:11:45.921Z,57.66
2022-10-17T11:15:28.356Z,54.94
2022-10-17T11:19:14.440Z,54.67
2022-10-17T11:22:45.513Z,54.05
2022-10-17T11:26:27.080Z,53.82
2022-10-17T11:29:52.764Z,53.51
2022-10-17T11:33:50.042Z,52.95
2022-10-17T11:37:23.011Z,53.05
2022-10-17T11:40:52.258Z,52.44
2022-10-17T11:44:34.310Z,52.27
2022-10-17T11:48:13.859Z,51.68
2022-10-17T11:52:44.292Z,52.12
2022-10-17T11:56:12.195Z,49.95
2022-10-17T12:00:18.960Z,49.46
2022-10-17T12:03:43.353Z,49.49
2022-10-17T12:07:33.883Z,48.00
2022-10-17T12:11:42.976Z,47.91
2022-10-17T12:15:13.371Z,48.22
2022-10-17T12:19:00.855Z,47.43
2022-10-17T12:22:26.339Z,47.16
2022-10-17T12:26:05.552Z,47.73
2022-10-17T12:29:44.804Z,46.49
2022-10-17T12:33:30.232Z,46.37
2022-10-17T12:37:00.323Z,46.53
2022-10-17T12:40:57.600Z,46.70
2022-10-17T12:44:21.424Z,44.95
2022-10-17T12:48:32.887Z,45.70
2022-10-17T12:52:18.452Z,46.63
2022-10-17T12:55:40.490Z,45.13
2022-10-17T12:59:21.713Z,44.26
2022-10-17T13:03:11.233Z,42.75
2022-10-17T13:06:58.603Z,40.38
2022-10-17T13:14:00.697Z,35.34
2022-10-17T13:17:34.961Z,34.85
2022-10-17T13:21:16.512Z,35.56
2022-10-17T13:24:52.103Z,32.83
2022-10-17T13:28:29.240Z,31.40
2022-10-17T13:32:06.103Z,31.08
2022-10-17T13:35:59.538Z,31.81
2022-10-17T13:39:45.323Z,30.44
2022-10-17T13:43:20.162Z,32.19
2022-10-17T13:46:48.896Z,31.70
2022-10-17T13:50:45.296Z,31.52
2022-10-17T13:54:28.530Z,31.18
2022-10-17T13:58:14.965Z,31.36
2022-10-17T14:01:37.888Z,31.17
2022-10-17T14:05:18.295Z,31.45
2022-10-17T14:09:05.621Z,30.19
2022-10-17T14:12:28.419Z,31.44
2022-10-17T14:16:08.579Z,31.17
2022-10-17T14:19:46.041Z,30.30
2022-10-17T14:23:43.250Z,31.20
2022-10-17T14:27:03.660Z,31.36
2022-10-17T14:30:56.719Z,31.66
2022-10-17T14:34:34.450Z,32.05
2022-10-17T14:38:03.575Z,31.80
2022-10-17T14:41:53.616Z,32.22
2022-10-17T14:45:23.734Z,32.22
2022-10-17T14:48:59.078Z,32.49
2022-10-17T14:52:31.649Z,33.47
2022-10-17T14:56:34.278Z,34.00
2022-10-17T15:00:18.777Z,34.66
2022-10-17T15:03:39.168Z,35.83
2022-10-17T15:07:18.091Z,36.72
2022-10-17T15:10:54.512Z,37.91
2022-10-17T15:14:33.448Z,38.75
2022-10-17T15:18:12.051Z,39.58
2022-10-17T15:21:47.542Z,40.16
2022-10-17T15:25:26.966Z,41.06
2022-10-17T15:29:21.632Z,41.80
2022-10-17T15:32:42.003Z,42.41
2022-10-17T15:36:32.411Z,43.05
2022-10-17T15:39:57.417Z,43.65
2022-10-17T15:43:53.884Z,44.31
2022-10-17T15:47:33.852Z,44.87
2022-10-17T15:51:14.083Z,45.44
2022-10-17T15:54:35.513Z,45.89
2022-10-17T15:58:16.467Z,46.28
2022-10-17T16:02:13.860Z,46.97
2022-10-17T16:05:34.901Z,47.32
2022-10-17T16:09:12.598Z,47.85
2022-10-17T16:12:50.377Z,48.09
2022-10-17T16:16:28.468Z,48.48
2022-10-17T16:20:06.612Z,48.85
2022-10-17T16:23:43.943Z,49.36
2022-10-17T16:27:20.833Z,49.79
2022-10-17T16:30:58.792Z,50.25
2022-10-17T16:34:55.010Z,50.65
2022-10-17T16:38:15.779Z,51.17
2022-10-17T16:41:54.922Z,51.59
2022-10-17T16:45:31.151Z,52.00
2022-10-17T16:49:27.540Z,52.61
2022-10-17T16:52:48.279Z,52.90
2022-10-17T16:56:44.620Z,53.49
2022-10-17T17:00:06.644Z,53.75
2022-10-17T17:03:46.082Z,53.95
2022-10-17T17:07:21.933Z,54.28
2022-10-17T17:10:58.936Z,54.88
2022-10-17T17:14:36.386Z,55.18
2022-10-17T17:18:16.682Z,55.38
2022-10-17T17:22:10.208Z,55.87
2022-10-17T17:25:30.772Z,56.28
2022-10-17T17:29:09.166Z,56.56
2022-10-17T17:32:46.690Z,56.85
2022-10-17T17:36:26.808Z,57.09
2022-10-17T17:40:01.598Z,57.37
2022-10-17T17:43:39.873Z,57.70
2022-10-17T17:47:16.748Z,58.24
2022-10-17T17:50:54.749Z,59.13
2022-10-17T17:54:33.038Z,59.73
2022-10-17T17:58:12.341Z,60.01
2022-10-17T18:02:08.141Z,60.32
2022-10-17T18:05:29.757Z,60.33
2022-10-17T18:09:08.261Z,60.14
2022-10-17T18:12:44.568Z,60.29
2022-10-17T18:16:22.912Z,60.13
2022-10-17T18:19:59.994Z,60.18
2022-10-17T18:23:56.339Z,60.59
2022-10-17T18:27:16.980Z,60.75
2022-10-17T18:31:23.366Z,61.17
2022-10-17T18:34:44.260Z,61.44
2022-10-17T18:38:41.920Z,62.19
2022-10-17T18:42:22.745Z,63.21
2022-10-17T18:45:43.107Z,63.81
2022-10-17T18:49:25.172Z,64.07
2022-10-17T18:53:17.286Z,64.16
2022-10-17T18:56:38.183Z,64.07
2022-10-17T19:00:17.368Z,64.03
2022-10-17T19:04:12.847Z,63.96
2022-10-17T19:07:33.798Z,63.98
2022-10-17T19:11:31.678Z,64.04
2022-10-17T19:14:53.116Z,64.16
2022-10-17T19:18:29.632Z,64.52
2022-10-17T19:22:09.544Z,64.98
2022-10-17T19:25:45.063Z,65.23
2022-10-17T19:29:27.566Z,65.15
2022-10-17T19:33:00.558Z,64.92
2022-10-17T19:36:38.504Z,64.88
2022-10-17T19:40:40.212Z,64.90
2022-10-17T19:47:40.960Z,64.91
2022-10-17T19:51:20.252Z,65.02
2022-10-17T19:55:15.043Z,65.24
2022-10-17T19:58:45.138Z,65.45
2022-10-17T20:02:14.096Z,66.04
2022-10-17T20:05:52.190Z,66.74
2022-10-17T20:09:28.778Z,67.39
2022-10-17T20:13:06.347Z,67.62
2022-10-17T20:16:50.132Z,67.70
2022-10-17T20:20:21.932Z,67.65
2022-10-17T20:24:00.805Z,67.46
2022-10-17T20:27:55.823Z,67.45
2022-10-17T20:31:19.020Z,67.36
2022-10-17T20:34:54.669Z,67.82
2022-10-17T20:38:58.000Z,68.49
2022-10-17T20:42:37.992Z,68.86
2022-10-17T20:46:08.521Z,68.69
2022-10-17T20:49:37.323Z,68.53
2022-10-17T20:53:37.691Z,68.44
2022-10-17T20:57:01.205Z,68.39
2022-10-17T21:00:40.718Z,68.13
2022-10-17T21:04:44.840Z,68.37
2022-10-17T21:07:56.233Z,68.82
2022-10-17T21:11:33.818Z,69.40
2022-10-17T21:15:12.004Z,69.59
2022-10-17T21:18:49.461Z,69.55
2022-10-17T21:22:27.258Z,69.48
2022-10-17T21:26:05.963Z,69.32
2022-10-17T21:29:42.690Z,69.16
2022-10-17T21:33:21.661Z,69.11
2022-10-17T21:36:57.760Z,68.94
2022-10-17T21:40:56.030Z,68.98
2022-10-17T21:44:19.682Z,69.10
2022-10-17T21:48:12.172Z,69.54
2022-10-17T21:51:34.370Z,69.96
2022-10-17T21:55:11.768Z,69.85
2022-10-17T21:58:50.997Z,69.82
2022-10-17T22:02:28.864Z,69.78
2022-10-17T22:06:12.915Z,69.65
2022-10-17T22:09:48.917Z,69.67
2022-10-17T22:13:25.927Z,69.66
2022-10-17T22:17:03.657Z,69.76
2022-10-17T22:20:41.612Z,70.23
2022-10-17T22:28:15.463Z,71.19
2022-10-17T22:31:37.357Z,71.11
2022-10-17T22:35:14.140Z,71.17
2022-10-17T22:39:10.729Z,71.09
2022-10-17T22:42:34.416Z,71.18
2022-10-17T22:46:10.279Z,71.09
2022-10-17T22:49:46.829Z,71.42
2022-10-17T22:53:43.180Z,71.85
2022-10-17T22:57:03.325Z,72.02
2022-10-17T23:00:40.972Z,71.98
2022-10-17T23:04:18.646Z,71.96
2022-10-17T23:07:57.448Z,71.74
2022-10-17T23:11:33.981Z,71.70
2022-10-17T23:15:11.704Z,71.67
2022-10-17T23:18:49.592Z,71.75
2022-10-17T23:22:27.130Z,72.10
2022-10-17T23:26:12.832Z,72.54
2022-10-17T23:29:42.375Z,72.80
2022-10-17T23:33:40.596Z,73.01
2022-10-17T23:37:01.316Z,72.89
2022-10-17T23:40:39.101Z,72.77
2022-10-17T23:44:16.581Z,72.54
2022-10-17T23:47:54.871Z,72.54
2022-10-17T23:51:50.892Z,72.69
2022-10-17T23:55:12.425Z,72.98
2022-10-17T23:58:49.185Z,73.41
